.
WxDataArchive / Data Records for 2014-03-30
2014-03-29 March 2014 2014-03-31

Data Records for Sunday, 30 March 2014

Time	Temp	Chill	HIndex	Humid	Dewpt	 Wind 	HiWind	WindDir	Rain 	Barom
-----	----	-----	------	-----	-----	------	------	-------	-----	-----
00:00	30.7	30.7	30.7	76	24.0	0	1	315	0.00	30.182 
00:05	30.6	30.6	30.6	76	24.0	0	1	315	0.00	30.182 
00:10	30.6	30.6	30.6	76	24.0	0	1	315	0.00	30.182 
00:15	30.4	30.4	30.4	77	24.1	0	0	---	0.00	30.182 
00:20	30.3	30.3	30.3	77	24.0	0	2	315	0.00	30.182 
00:25	30.1	30.1	30.1	77	23.8	0	0	---	0.00	30.182 
00:30	30.1	30.1	30.1	77	23.8	0	1	315	0.00	30.183 
00:35	30.0	30.0	30.0	78	24.0	0	1	315	0.00	30.183 
00:40	30.0	30.0	30.0	78	24.0	0	0	---	0.00	30.183 
00:45	29.8	29.8	29.8	78	23.8	0	0	---	0.00	30.182 
00:50	29.7	29.7	29.7	78	23.7	0	0	---	0.00	30.182 
00:55	29.7	29.7	29.7	79	24.0	0	1	315	0.00	30.182 
01:00	29.7	29.7	29.7	79	24.0	0	1	315	0.00	30.186 
01:05	29.7	29.7	29.7	79	24.0	0	1	315	0.00	30.186 
01:10	29.5	29.5	29.5	79	23.8	0	0	---	0.00	30.186 
01:15	29.4	29.4	29.4	79	23.7	0	0	---	0.00	30.194 
01:20	29.4	29.4	29.4	79	23.7	0	0	---	0.00	30.194 
01:25	29.3	29.3	29.3	80	23.9	0	1	315	0.00	30.194 
01:30	29.3	29.3	29.3	80	23.9	0	2	315	0.00	30.194 
01:35	29.3	29.3	29.3	80	23.9	0	1	315	0.00	30.194 
01:40	29.4	29.4	29.4	79	23.7	0	3	315	0.00	30.194 
01:45	29.4	29.4	29.4	79	23.7	0	1	315	0.00	30.197 
01:50	29.3	29.3	29.3	79	23.6	0	1	315	0.00	30.197 
01:55	29.1	29.1	29.1	79	23.4	0	1	315	0.00	30.197 
02:00	29.1	29.1	29.1	79	23.4	1	3	315	0.00	30.197 
02:05	29.3	29.3	29.3	77	23.0	1	3	315	0.00	30.197 
02:10	29.3	29.3	29.3	76	22.7	0	3	315	0.00	30.197 
02:15	29.3	29.3	29.3	76	22.7	0	2	315	0.00	30.196 
02:20	29.1	29.1	29.1	75	22.2	0	0	---	0.00	30.196 
02:25	29.0	29.0	29.0	76	22.4	0	1	315	0.00	30.196 
02:30	28.8	28.8	28.8	76	22.2	0	1	315	0.00	30.196 
02:35	28.8	28.8	28.8	76	22.2	0	2	315	0.00	30.196 
02:40	28.7	28.7	28.7	76	22.1	0	1	315	0.00	30.196 
02:45	28.7	28.7	28.7	76	22.1	0	0	---	0.00	30.189 
02:50	28.5	28.5	28.5	76	21.9	0	0	---	0.00	30.189 
02:55	28.4	28.4	28.4	77	22.1	0	2	315	0.00	30.189 
03:00	28.4	28.4	28.4	76	21.8	0	3	315	0.00	30.193 
03:05	28.7	28.7	28.7	76	22.1	0	2	315	0.00	30.193 
03:10	28.7	28.7	28.7	75	21.8	0	1	315	0.00	30.193 
03:15	28.5	28.5	28.5	75	21.6	0	0	---	0.00	30.193 
03:20	28.2	28.2	28.2	75	21.3	0	0	---	0.00	30.193 
03:25	28.1	28.1	28.1	75	21.2	0	0	---	0.00	30.193 
03:30	27.8	27.8	27.8	75	20.9	0	0	---	0.00	30.197 
03:35	27.6	27.6	27.6	75	20.7	0	0	---	0.00	30.197 
03:40	27.3	27.3	27.3	76	20.8	0	0	---	0.00	30.197 
03:45	27.2	27.2	27.2	76	20.7	0	1	315	0.00	30.193 
03:50	27.3	27.3	27.3	77	21.1	0	1	315	0.00	30.193 
03:55	27.5	27.5	27.5	77	21.3	0	2	315	0.00	30.193 
04:00	27.6	27.6	27.6	77	21.4	0	1	315	0.00	30.194 
04:05	27.6	27.6	27.6	77	21.4	0	1	315	0.00	30.194 
04:10	27.5	27.5	27.5	77	21.3	0	0	---	0.00	30.194 
04:15	27.3	27.3	27.3	77	21.1	0	0	---	0.00	30.184 
04:20	27.2	27.2	27.2	77	21.0	0	0	---	0.00	30.184 
04:25	26.9	26.9	26.9	77	20.7	0	0	---	0.00	30.184 
04:30	26.7	26.7	26.7	77	20.5	0	1	315	0.00	30.179 
04:35	26.7	26.7	26.7	78	20.8	0	1	315	0.00	30.179 
04:40	26.6	26.6	26.6	78	20.7	0	1	315	0.00	30.179 
04:45	26.6	26.6	26.6	78	20.7	0	0	---	0.00	30.174 
04:50	26.4	26.4	26.4	78	20.5	0	0	---	0.00	30.174 
04:55	26.4	26.4	26.4	78	20.5	0	0	---	0.00	30.174 
05:00	26.3	26.3	26.3	79	20.7	0	1	315	0.00	30.190 
05:05	26.3	26.3	26.3	79	20.7	0	2	315	0.00	30.190 
05:10	26.4	26.4	26.4	79	20.8	0	2	315	0.00	30.190 
05:15	26.6	26.6	26.6	79	21.0	0	1	315	0.00	30.193 
05:20	26.6	26.6	26.6	80	21.3	1	2	315	0.00	30.193 
05:25	26.7	26.7	26.7	80	21.4	0	2	315	0.00	30.193 
05:30	26.7	26.7	26.7	80	21.4	1	3	315	0.00	30.196 
05:35	26.9	26.9	26.9	79	21.3	0	2	315	0.00	30.196 
05:40	26.7	26.7	26.7	79	21.1	0	3	315	0.00	30.196 
05:45	26.7	26.7	26.7	79	21.1	0	2	315	0.00	30.202 
05:50	26.6	26.6	26.6	80	21.3	0	2	315	0.00	30.202 
05:55	26.6	26.6	26.6	80	21.3	0	2	315	0.00	30.202 
06:00	26.6	26.6	26.6	80	21.3	1	3	315	0.00	30.207 
06:05	26.6	26.6	26.6	80	21.3	0	2	315	0.00	30.207 
06:10	26.6	26.6	26.6	80	21.3	1	3	315	0.00	30.207 
06:15	26.6	26.6	26.6	80	21.3	1	2	315	0.00	30.213 
06:20	26.6	26.6	26.6	80	21.3	0	2	315	0.00	30.213 
06:25	26.6	26.6	26.6	80	21.3	0	3	315	0.00	30.213 
06:30	26.6	26.6	26.6	81	21.6	0	2	315	0.00	30.213 
06:35	26.4	26.4	26.4	81	21.4	0	2	315	0.00	30.213 
06:40	26.4	26.4	26.4	81	21.4	0	2	315	0.00	30.213 
06:45	26.4	26.4	26.4	81	21.4	0	2	315	0.00	30.215 
06:50	26.4	26.4	26.4	81	21.4	0	2	315	0.00	30.215 
06:55	26.4	26.4	26.4	81	21.4	0	1	315	0.00	30.215 
07:00	26.3	26.3	26.3	81	21.3	0	2	315	0.00	30.224 
07:05	26.3	26.3	26.3	81	21.3	0	1	315	0.00	30.224 
07:10	26.3	26.3	26.3	81	21.3	0	1	315	0.00	30.224 
07:15	26.1	26.1	26.1	81	21.1	0	2	315	0.00	30.216 
07:20	26.1	26.1	26.1	81	21.1	0	0	---	0.00	30.216 
07:25	26.0	26.0	26.0	81	21.0	0	0	---	0.00	30.216 
07:30	25.8	25.8	25.8	81	20.8	0	1	315	0.00	30.220 
07:35	25.7	25.7	25.7	81	20.7	0	0	---	0.00	30.220 
07:40	25.7	25.7	25.7	81	20.7	0	0	---	0.00	30.220 
07:45	25.6	25.6	25.6	81	20.6	0	0	---	0.00	30.226 
07:50	25.4	25.4	25.4	82	20.7	0	0	---	0.00	30.226 
07:55	25.4	25.4	25.4	82	20.7	0	1	315	0.00	30.226 
08:00	25.6	25.6	25.6	82	20.9	0	0	---	0.00	30.228 
08:05	25.7	25.7	25.7	82	21.0	0	0	---	0.00	30.228 
08:10	26.0	26.0	26.0	82	21.3	0	0	---	0.00	30.228 
08:15	26.3	26.3	26.3	82	21.6	0	0	---	0.00	30.232 
08:20	26.6	26.6	26.6	82	21.9	0	1	315	0.00	30.232 
08:25	26.9	26.9	26.9	81	21.9	0	1	315	0.00	30.232 
08:30	27.3	27.3	27.3	81	22.3	0	1	315	0.00	30.239 
08:35	27.8	27.8	27.8	80	22.4	0	1	315	0.00	30.239 
08:40	28.1	28.1	28.1	79	22.4	0	1	315	0.00	30.239 
08:45	28.5	28.5	28.5	78	22.5	0	2	315	0.00	30.242 
08:50	28.7	28.7	28.7	76	22.1	0	3	315	0.00	30.242 
08:55	29.1	29.1	29.1	75	22.2	0	2	68	0.00	30.242 
09:00	29.5	29.5	29.5	73	21.9	0	2	45	0.00	30.230 
09:05	30.0	30.0	30.0	72	22.1	0	2	45	0.00	30.230 
09:10	30.3	30.3	30.3	70	21.7	1	3	45	0.00	30.230 
09:15	30.7	30.7	30.7	69	21.8	1	3	45	0.00	30.227 
09:20	31.2	31.2	31.2	66	21.2	1	5	90	0.00	30.227 
09:25	31.5	31.5	31.5	66	21.5	0	2	90	0.00	30.227 
09:30	31.8	31.8	31.8	64	21.0	1	3	90	0.00	30.214 
09:35	32.1	32.1	32.1	65	21.7	0	1	90	0.00	30.214 
09:40	32.2	32.2	32.2	64	21.4	1	4	90	0.00	30.214 
09:45	32.5	32.5	32.5	63	21.3	0	2	338	0.00	30.230 
09:50	32.9	32.9	32.9	62	21.3	0	6	338	0.00	30.230 
09:55	33.5	33.5	33.5	63	22.3	1	6	135	0.00	30.230 
10:00	34.0	34.0	34.0	60	21.6	1	4	135	0.00	30.224 
10:05	34.1	34.1	34.1	59	21.3	1	4	112	0.00	30.224 
10:10	34.6	34.6	34.6	58	21.4	0	3	112	0.00	30.224 
10:15	34.6	34.6	34.6	58	21.4	0	3	0	0.00	30.234 
10:20	35.2	35.2	35.2	57	21.5	0	3	90	0.00	30.234 
10:25	35.3	35.3	35.3	54	20.3	1	3	90	0.00	30.234 
10:30	35.6	35.6	35.6	55	21.0	0	1	22	0.00	30.242 
10:35	36.5	36.5	36.5	54	21.5	0	2	22	0.00	30.242 
10:40	36.6	36.6	36.6	53	21.1	1	4	270	0.00	30.242 
10:45	36.5	36.5	36.5	54	21.5	1	4	270	0.00	30.247 
10:50	36.5	36.5	36.5	52	20.6	1	4	338	0.00	30.247 
10:55	36.9	36.9	36.9	53	21.4	1	5	338	0.00	30.247 
11:00	37.2	37.2	37.2	49	19.8	1	3	338	0.00	30.242 
11:05	37.5	37.5	37.5	50	20.6	1	3	338	0.00	30.242 
11:10	38.0	38.0	38.0	49	20.6	1	3	315	0.00	30.242 
11:15	38.5	38.5	38.5	48	20.5	0	2	315	0.00	30.241 
11:20	39.1	39.1	39.1	50	22.0	0	2	315	0.00	30.241 
11:25	39.2	39.2	39.2	46	20.2	1	3	315	0.00	30.241 
11:30	39.5	39.5	39.5	47	21.0	0	2	315	0.00	30.234 
11:35	39.8	39.8	39.8	46	20.7	1	3	315	0.00	30.234 
11:40	40.3	40.3	40.3	47	21.7	0	3	315	0.00	30.234 
11:45	40.8	40.8	40.8	47	22.1	1	2	315	0.00	30.230 
11:50	41.1	41.1	41.1	47	22.4	1	3	292	0.00	30.230 
11:55	41.2	41.2	41.2	44	21.0	1	3	292	0.00	30.230 
12:00	41.5	41.5	41.5	44	21.2	1	3	292	0.00	30.224 
12:05	41.9	41.9	41.9	44	21.6	1	4	0	0.00	30.224 
12:10	42.2	42.2	42.2	43	21.3	1	4	270	0.00	30.224 
12:15	42.2	42.2	42.2	40	19.6	1	3	338	0.00	30.222 
12:20	42.5	42.5	42.5	40	19.9	1	2	338	0.00	30.222 
12:25	42.9	42.9	42.9	40	20.3	1	3	338	0.00	30.222 
12:30	43.2	43.2	43.2	39	19.9	1	4	338	0.00	30.217 
12:35	43.5	43.5	43.5	39	20.2	1	4	0	0.00	30.217 
12:40	43.9	43.9	43.9	44	23.4	1	4	112	0.00	30.217 
12:45	44.2	44.2	44.2	41	22.0	1	4	45	0.00	30.205 
12:50	44.6	44.6	44.6	39	21.2	1	4	315	0.00	30.205 
12:55	44.6	44.6	44.6	40	21.8	1	3	315	0.00	30.205 
13:00	44.6	44.6	44.6	40	21.8	1	4	315	0.00	30.202 
13:05	44.9	44.9	44.9	41	22.6	1	3	315	0.00	30.202 
13:10	45.4	45.4	45.4	39	21.9	0	2	338	0.00	30.202 
13:15	45.7	45.7	45.7	40	22.8	0	2	315	0.00	30.200 
13:20	46.4	46.4	46.4	42	24.6	0	3	315	0.00	30.200 
13:25	46.4	46.4	46.4	39	22.8	1	4	315	0.00	30.200 
13:30	46.2	46.2	46.2	40	23.2	1	3	315	0.00	30.202 
13:35	46.5	46.5	46.5	39	22.9	0	2	315	0.00	30.202 
13:40	46.7	46.7	46.7	37	21.8	1	5	338	0.00	30.202 
13:45	46.7	46.7	46.7	37	21.8	1	4	248	0.00	30.200 
13:50	46.8	46.8	46.8	39	23.2	0	4	248	0.00	30.200 
13:55	47.0	47.0	47.0	37	22.1	1	4	338	0.00	30.200 
14:00	47.0	47.0	47.0	37	22.1	1	3	292	0.00	30.196 
14:05	47.6	47.6	47.6	40	24.5	0	2	292	0.00	30.196 
14:10	47.6	47.6	47.6	42	25.7	1	3	292	0.00	30.196 
14:15	48.3	48.3	48.3	36	22.6	1	3	292	0.00	30.189 
14:20	48.9	48.9	48.9	36	23.1	0	2	292	0.00	30.189 
14:25	49.4	49.4	49.4	33	21.5	1	3	292	0.00	30.189 
14:30	49.2	49.2	49.2	32	20.6	1	4	292	0.00	30.186 
14:35	49.2	49.2	49.2	36	23.4	1	3	315	0.00	30.186 
14:40	49.2	49.2	49.2	32	20.6	1	3	315	0.00	30.186 
14:45	49.5	49.5	49.5	35	23.0	0	2	315	0.00	30.183 
14:50	50.2	50.2	50.2	34	22.9	1	5	315	0.00	30.183 
14:55	50.5	50.5	50.5	34	23.2	1	3	315	0.00	30.183 
15:00	50.7	50.7	50.7	31	21.2	1	2	315	0.00	30.175 
15:05	50.7	50.7	50.7	33	22.7	1	4	270	0.00	30.175 
15:10	50.5	50.5	50.5	35	23.9	1	4	270	0.00	30.175 
15:15	51.0	51.0	51.0	32	22.2	2	4	270	0.00	30.175 
15:20	51.0	51.0	51.0	36	25.0	1	4	270	0.00	30.175 
15:25	51.0	51.0	51.0	35	24.3	1	3	270	0.00	30.175 
15:30	51.0	51.0	51.0	32	22.2	2	6	270	0.00	30.166 
15:35	51.0	51.0	51.0	36	25.0	1	3	315	0.00	30.166 
15:40	51.4	51.4	51.4	36	25.4	1	3	292	0.00	30.166 
15:45	51.6	51.6	51.6	34	24.2	1	3	292	0.00	30.155 
15:50	51.6	51.6	51.6	34	24.2	1	4	270	0.00	30.155 
15:55	51.4	51.4	51.4	32	22.5	2	6	315	0.00	30.155 
16:00	51.3	51.3	51.3	34	23.9	2	4	0	0.00	30.151 
16:05	51.9	51.9	51.9	35	25.1	0	2	270	0.00	30.151 
16:10	52.2	52.2	52.2	36	26.1	1	5	315	0.00	30.151 
16:15	52.3	52.3	52.3	33	24.1	1	5	315	0.00	30.142 
16:20	52.3	52.3	52.3	34	24.8	1	5	270	0.00	30.142 
16:25	52.0	52.0	52.0	31	22.3	1	2	315	0.00	30.142 
16:30	51.7	51.7	51.7	33	23.5	1	2	315	0.00	30.136 
16:35	52.0	52.0	52.0	34	24.5	1	3	315	0.00	30.136 
16:40	52.3	52.3	52.3	34	24.8	0	4	270	0.00	30.136 
16:45	52.5	52.5	52.5	33	24.2	1	3	270	0.00	30.125 
16:50	52.5	52.5	52.5	32	23.5	1	4	270	0.00	30.125 
16:55	52.3	52.3	52.3	33	24.1	1	5	0	0.00	30.125 
17:00	52.6	52.6	52.6	31	22.8	1	2	0	0.00	30.124 
17:05	52.6	52.6	52.6	31	22.8	1	3	292	0.00	30.124 
17:10	52.8	52.8	52.8	34	25.2	1	4	292	0.00	30.124 
17:15	52.8	52.8	52.8	31	23.0	1	4	248	0.00	30.121 
17:20	52.8	52.8	52.8	31	23.0	1	3	315	0.00	30.121 
17:25	53.1	53.1	53.1	31	23.3	1	3	315	0.00	30.121 
17:30	53.2	53.2	53.2	30	22.6	1	4	315	0.00	30.120 
17:35	53.2	53.2	53.2	31	23.4	1	3	270	0.00	30.120 
17:40	53.1	53.1	53.1	31	23.3	0	3	90	0.00	30.120 
17:45	53.2	53.2	53.2	35	26.3	0	1	90	0.00	30.118 
17:50	53.5	53.5	53.5	30	22.8	1	3	45	0.00	30.118 
17:55	53.8	53.8	53.8	30	23.1	1	2	22	0.00	30.118 
18:00	53.6	53.6	53.6	30	22.9	1	3	270	0.00	30.114 
18:05	53.9	53.9	53.9	30	23.2	1	2	270	0.00	30.114 
18:10	54.2	54.2	54.2	28	21.8	1	2	270	0.00	30.114 
18:15	54.4	54.4	54.4	28	22.0	0	2	270	0.00	30.117 
18:20	54.2	54.2	54.2	29	22.6	0	1	270	0.00	30.117 
18:25	54.1	54.1	54.1	29	22.6	0	2	270	0.00	30.117 
18:30	53.6	53.6	53.6	31	23.7	0	2	270	0.00	30.119 
18:35	53.3	53.3	53.3	32	24.2	0	2	270	0.00	30.119 
18:40	53.2	53.2	53.2	30	22.6	0	2	270	0.00	30.119 
18:45	52.9	52.9	52.9	31	23.1	0	2	270	0.00	30.117 
18:50	52.8	52.8	52.8	31	23.0	1	2	270	0.00	30.117 
18:55	52.6	52.6	52.6	31	22.8	1	4	270	0.00	30.117 
19:00	52.3	52.3	52.3	32	23.3	1	4	315	0.00	30.121 
19:05	52.2	52.2	52.2	32	23.2	0	2	315	0.00	30.121 
19:10	52.2	52.2	52.2	31	22.5	1	4	315	0.00	30.121 
19:15	52.0	52.0	52.0	32	23.1	0	2	248	0.00	30.127 
19:20	51.9	51.9	51.9	33	23.7	0	1	248	0.00	30.127 
19:25	51.7	51.7	51.7	35	24.9	0	0	---	0.00	30.127 
19:30	51.4	51.4	51.4	35	24.7	0	1	248	0.00	30.125 
19:35	51.3	51.3	51.3	35	24.6	0	1	248	0.00	30.125 
19:40	51.1	51.1	51.1	34	23.7	0	1	248	0.00	30.125 
19:45	50.8	50.8	50.8	35	24.1	0	0	---	0.00	30.128 
19:50	50.5	50.5	50.5	36	24.6	0	1	248	0.00	30.128 
19:55	50.2	50.2	50.2	36	24.3	0	0	---	0.00	30.128 
20:00	49.8	49.8	49.8	37	24.6	0	0	---	0.00	30.127 
20:05	49.2	49.2	49.2	37	24.1	0	0	---	0.00	30.127 
20:10	48.8	48.8	48.8	39	25.0	0	0	---	0.00	30.127 
20:15	48.2	48.2	48.2	39	24.4	0	0	---	0.00	30.128 
20:20	47.4	47.4	47.4	40	24.3	0	0	---	0.00	30.128 
20:25	46.8	46.8	46.8	41	24.4	0	0	---	0.00	30.128 
20:30	46.2	46.2	46.2	42	24.4	0	0	---	0.00	30.129 
20:35	45.7	45.7	45.7	43	24.5	0	0	---	0.00	30.129 
20:40	45.1	45.1	45.1	44	24.5	0	0	---	0.00	30.129 
20:45	44.5	44.5	44.5	46	25.0	0	0	---	0.00	30.139 
20:50	44.1	44.1	44.1	47	25.2	0	0	---	0.00	30.139 
20:55	43.5	43.5	43.5	48	25.1	0	0	---	0.00	30.139 
21:00	43.1	43.1	43.1	49	25.3	0	0	---	0.00	30.143 
21:05	42.5	42.5	42.5	50	25.2	0	0	---	0.00	30.143 
21:10	42.1	42.1	42.1	50	24.8	0	0	---	0.00	30.143 
21:15	41.8	41.8	41.8	50	24.5	0	0	---	0.00	30.142 
21:20	41.3	41.3	41.3	51	24.6	0	0	---	0.00	30.142 
21:25	40.9	40.9	40.9	53	25.1	0	0	---	0.00	30.142 
21:30	40.5	40.5	40.5	54	25.2	0	0	---	0.00	30.145 
21:35	40.2	40.2	40.2	54	24.9	0	0	---	0.00	30.145 
21:40	39.9	39.9	39.9	55	25.1	0	0	---	0.00	30.145 
21:45	39.6	39.6	39.6	56	25.2	0	0	---	0.00	30.144 
21:50	39.5	39.5	39.5	57	25.5	0	0	---	0.00	30.144 
21:55	39.2	39.2	39.2	58	25.7	0	0	---	0.00	30.144 
22:00	38.9	38.9	38.9	59	25.8	0	0	---	0.00	30.143 
22:05	38.5	38.5	38.5	59	25.4	0	0	---	0.00	30.143 
22:10	38.3	38.3	38.3	60	25.6	0	0	---	0.00	30.143 
22:15	38.0	38.0	38.0	61	25.8	0	0	---	0.00	30.140 
22:20	37.9	37.9	37.9	62	26.1	0	0	---	0.00	30.140 
22:25	37.8	37.8	37.8	62	26.0	0	0	---	0.00	30.140 
22:30	37.5	37.5	37.5	62	25.7	0	0	---	0.00	30.132 
22:35	37.5	37.5	37.5	63	26.1	0	0	---	0.00	30.132 
22:40	37.3	37.3	37.3	63	25.9	0	0	---	0.00	30.132 
22:45	37.2	37.2	37.2	63	25.8	0	0	---	0.00	30.131 
22:50	37.0	37.0	37.0	64	26.0	0	0	---	0.00	30.131 
22:55	36.8	36.8	36.8	64	25.8	0	0	---	0.00	30.131 
23:00	36.6	36.6	36.6	65	26.0	0	0	---	0.00	30.129 
23:05	36.5	36.5	36.5	66	26.2	0	0	---	0.00	30.129 
23:10	36.5	36.5	36.5	66	26.2	0	0	---	0.00	30.129 
23:15	36.3	36.3	36.3	67	26.4	0	0	---	0.00	30.131 
23:20	36.2	36.2	36.2	67	26.3	0	0	---	0.00	30.131 
23:25	36.0	36.0	36.0	68	26.5	0	0	---	0.00	30.131 
23:30	35.9	35.9	35.9	69	26.7	0	0	---	0.00	30.130 
23:35	35.8	35.8	35.8	69	26.6	0	0	---	0.00	30.130 
23:40	35.5	35.5	35.5	69	26.4	0	0	---	0.00	30.130 
23:45	35.3	35.3	35.3	69	26.2	0	0	---	0.00	30.138 
23:50	35.2	35.2	35.2	69	26.1	0	0	---	0.00	30.138 
23:55	35.0	35.0	35.0	70	26.2	0	0	---	0.00	30.138 

CoCoRaHS
IN-AL-39
A2 Web Hosting
Creative Commons License
GoDaddy
search engine by freefind advanced

loaded 2018-11-19 19:15:41 • last modified 2010-11-18 10:43:29
Privacy PolicyDisclaimer
• wx.awcolley.com is powered by PmWiki v.2002016 •
• all content (unless otherwise noted) © 2018 A W Colley